Aérodrome :
LOGIN :

S'inscrire | Disclaimer

   EN    FR    IT 

 










Légende :    VFR   VFR Marginal   IFR   IFR Intensif   IFR Très Intensif
Visi : 
Plafond : 
>= 8 km
>= 3000ft
5 à 8 km
1000 à 3000 ft
1500m à 5 km
500 à 1000 ft
800 à 1500m
200 à 500 ft
< 800m
< 200 ft
Symboles :   Orages  Brouillard  Fortes neiges  Fortes précipitations  Vent > 20 kt
SIGMETs :   Divers  Orages  Givrage  Turbulence  Onde Orograph.  Cendres Volcan.







- Altitude de l'aérodrome : 309 ft
- Code IATA : FNI
- Voir les cartes d'approche


LFTW - Nîmes Garons

DERNIER METAR :
  • 210700Z AUTO 32006KT 290V350 CAVOK 17/10 Q1013 NOSIG

METARs EXPIRÉS :
  • 210630Z AUTO 29005KT 260V330 CAVOK 16/10 Q1012 NOSIG
  • 210600Z AUTO 30005KT 260V330 CAVOK 15/09 Q1012 NOSIG
  • 210530Z AUTO 29004KT 260V320 CAVOK 13/09 Q1012 NOSIG
  • 210500Z AUTO 28005KT CAVOK 12/08 Q1012 BECMG 34010KT
  • 210430Z AUTO 28005KT CAVOK 12/08 Q1012 BECMG 34010KT

TAF TAF LFTW
Valide du 21 à 03h jusqu'au 22 à 03h UTC


210200Z 2103/2203 34010KT CAVOK
TEMPO 2109/2119 35015G25KT
Pas de NOTAMs connus pour ce terrain.
1 SIGMET publié pour la FIR Marseille (LFMM) :
 
Onde orographique forte
LFMM SIGMET 1 VALID 210400/210800 LFPW
LFMM MARSEILLE FIR/UIR SEV MTW FCST E OF E00900 SFC/FL100 STNR NC=



MET'MAP, la Météo Aéronautique d'un coup d'oeil ! - Copyright ORBIFLY Décembre 2007 - Disclaimer

ORBIFLY MET'MAP TEAM :

Programmation & Développement : Alexandra Zaïnal
Conception & Développement : Baudouin d'Aumeries
Co-Programmation & Développement : Marc-Olivier Méhu
Soutien technique & logistique : Manuel Goepfert

Contact : metmap@orbifly.com




SOURCES & CREDITS :

   NOAA